createdAt,value
2018-08-31T00:01:47.770Z,13.47
2018-08-31T00:06:23.466Z,15.60
2018-08-31T00:09:27.674Z,14.53
2018-08-31T00:12:07.330Z,13.83
2018-08-31T00:14:35.530Z,13.50
2018-08-31T00:17:03.747Z,14.53
2018-08-31T00:19:31.982Z,14.93
2018-08-31T00:22:00.221Z,13.83
2018-08-31T00:24:33.899Z,14.50
2018-08-31T00:27:07.549Z,14.10
2018-08-31T00:29:44.303Z,17.00
2018-08-31T00:32:18.020Z,15.33
2018-08-31T00:34:51.585Z,18.30
2018-08-31T00:37:25.266Z,16.47
2018-08-31T00:42:03.037Z,16.43
2018-08-31T00:45:36.528Z,18.07
2018-08-31T00:48:05.123Z,14.73
2018-08-31T00:50:33.592Z,16.93
2018-08-31T00:53:02.388Z,16.27
2018-08-31T00:55:30.782Z,14.80
2018-08-31T00:57:58.939Z,14.70
2018-08-31T01:00:27.130Z,15.13
2018-08-31T01:02:55.416Z,16.90
2018-08-31T01:05:23.671Z,17.43
2018-08-31T01:07:51.985Z,16.93
2018-08-31T01:10:21.576Z,16.20
2018-08-31T01:12:50.077Z,17.73
2018-08-31T01:15:18.282Z,17.27
2018-08-31T01:17:46.552Z,15.70
2018-08-31T01:20:14.821Z,15.83
2018-08-31T01:22:43.050Z,15.33
2018-08-31T01:25:11.855Z,16.73
2018-08-31T01:27:40.169Z,19.33
2018-08-31T01:30:08.745Z,19.27
2018-08-31T01:32:36.911Z,15.73
2018-08-31T01:35:05.141Z,15.27
2018-08-31T01:37:33.370Z,15.07
2018-08-31T01:40:01.527Z,15.73
2018-08-31T01:42:29.865Z,14.37
2018-08-31T01:44:58.098Z,16.57
2018-08-31T01:47:26.344Z,17.37
2018-08-31T01:49:54.560Z,15.53
2018-08-31T01:52:22.820Z,16.33
2018-08-31T01:54:51.015Z,17.40
2018-08-31T01:57:19.248Z,17.93
2018-08-31T01:59:48.036Z,19.10
2018-08-31T02:02:17.781Z,19.83
2018-08-31T02:04:45.957Z,19.03
2018-08-31T02:07:15.228Z,15.87
2018-08-31T02:09:43.844Z,19.77
2018-08-31T02:12:12.092Z,15.40
2018-08-31T02:14:40.257Z,16.50
2018-08-31T02:17:08.497Z,16.50
2018-08-31T02:19:36.779Z,19.90
2018-08-31T02:22:05.007Z,15.83
2018-08-31T02:24:33.177Z,19.47
2018-08-31T02:27:01.421Z,15.50
2018-08-31T02:29:29.633Z,14.20
2018-08-31T02:31:57.891Z,15.10
2018-08-31T02:34:26.083Z,15.70
2018-08-31T02:36:54.335Z,17.83
2018-08-31T02:39:22.661Z,16.13
2018-08-31T02:41:50.789Z,18.40
2018-08-31T02:44:19.005Z,16.10
2018-08-31T02:46:47.229Z,19.70
2018-08-31T02:49:15.439Z,16.37
2018-08-31T02:51:43.773Z,15.53
2018-08-31T02:54:11.997Z,18.10
2018-08-31T02:56:40.259Z,16.20
2018-08-31T02:59:08.477Z,22.07
2018-08-31T03:01:36.680Z,21.13
2018-08-31T03:04:04.879Z,16.67
2018-08-31T03:06:33.167Z,15.97
2018-08-31T03:09:01.371Z,16.23
2018-08-31T03:11:29.731Z,15.13
2018-08-31T03:13:57.891Z,15.43
2018-08-31T03:16:26.123Z,16.77
2018-08-31T03:18:54.327Z,16.60
2018-08-31T03:21:22.797Z,14.50
2018-08-31T03:23:50.993Z,16.67
2018-08-31T03:26:19.188Z,14.57
2018-08-31T03:28:47.420Z,16.43
2018-08-31T03:31:15.662Z,16.70
2018-08-31T03:33:43.847Z,14.17
2018-08-31T03:36:12.078Z,14.60
2018-08-31T03:38:40.332Z,17.20
2018-08-31T03:41:08.499Z,14.23
2018-08-31T03:43:36.722Z,16.90
2018-08-31T03:46:04.929Z,15.20
2018-08-31T03:48:33.195Z,14.57
2018-08-31T03:51:01.472Z,14.80
2018-08-31T03:53:29.718Z,22.43
2018-08-31T03:55:57.907Z,16.67
2018-08-31T03:58:26.087Z,17.10
2018-08-31T04:00:54.255Z,17.73
2018-08-31T04:03:22.468Z,18.57
2018-08-31T04:05:50.731Z,17.30
2018-08-31T04:08:19.036Z,17.90
2018-08-31T04:10:47.257Z,15.27
2018-08-31T04:13:15.525Z,14.30
2018-08-31T04:15:43.720Z,18.33
2018-08-31T04:18:12.058Z,17.87
2018-08-31T04:20:40.266Z,16.17
2018-08-31T04:23:08.552Z,15.13
2018-08-31T04:25:36.720Z,16.33
2018-08-31T04:28:05.136Z,14.57
2018-08-31T04:30:33.350Z,17.40
2018-08-31T04:33:01.575Z,14.70
2018-08-31T04:35:29.763Z,15.67
2018-08-31T04:37:58.041Z,16.93
2018-08-31T04:40:26.326Z,16.97
2018-08-31T04:42:54.569Z,17.97
2018-08-31T04:45:22.769Z,17.87
2018-08-31T04:47:51.047Z,18.20
2018-08-31T04:50:19.381Z,17.77
2018-08-31T04:52:47.563Z,15.87
2018-08-31T04:55:16.042Z,18.67
2018-08-31T04:57:44.289Z,19.17
2018-08-31T05:00:12.471Z,16.43
2018-08-31T05:02:41.162Z,18.23
2018-08-31T05:05:09.477Z,16.67
2018-08-31T05:07:37.652Z,16.97
2018-08-31T05:10:06.072Z,18.37
2018-08-31T05:12:34.942Z,18.50
2018-08-31T05:15:03.232Z,19.10
2018-08-31T05:17:31.588Z,17.97
2018-08-31T05:20:06.921Z,18.97
2018-08-31T05:22:35.330Z,15.93
2018-08-31T05:25:03.536Z,18.57
2018-08-31T05:27:31.941Z,16.40
2018-08-31T05:30:00.161Z,17.07
2018-08-31T05:32:32.450Z,16.70
2018-08-31T05:35:00.695Z,19.47
2018-08-31T05:37:29.842Z,18.70
2018-08-31T05:39:58.233Z,18.23
2018-08-31T05:42:26.558Z,19.13
2018-08-31T05:44:54.756Z,15.67
2018-08-31T05:47:26.787Z,15.57
2018-08-31T05:49:55.075Z,16.83
2018-08-31T05:52:24.502Z,16.17
2018-08-31T05:54:52.927Z,12.37
2018-08-31T05:57:21.205Z,12.93
2018-08-31T05:59:50.511Z,15.90
2018-08-31T06:02:18.965Z,16.27
2018-08-31T06:04:47.342Z,13.77
2018-08-31T06:07:15.949Z,12.97
2018-08-31T06:09:44.276Z,13.83
2018-08-31T06:12:12.723Z,14.47
2018-08-31T06:14:46.798Z,16.97
2018-08-31T06:17:31.269Z,17.60
2018-08-31T06:20:02.979Z,18.53
2018-08-31T06:23:06.191Z,19.53
2018-08-31T06:25:34.748Z,20.37
2018-08-31T06:28:05.369Z,18.47
2018-08-31T06:30:33.535Z,16.97
2018-08-31T06:33:01.684Z,16.37
2018-08-31T06:35:31.333Z,18.53
2018-08-31T06:37:59.462Z,16.50
2018-08-31T06:40:27.641Z,17.90
2018-08-31T06:42:55.741Z,19.40
2018-08-31T06:45:36.023Z,19.97
2018-08-31T06:48:04.149Z,17.37
2018-08-31T06:50:32.289Z,18.83
2018-08-31T06:53:00.442Z,16.03
2018-08-31T06:55:28.578Z,19.20
2018-08-31T06:57:56.704Z,16.87
2018-08-31T07:00:24.840Z,15.57
2018-08-31T07:02:53.022Z,15.50
2018-08-31T07:05:21.270Z,17.30
2018-08-31T07:07:49.474Z,17.70
2018-08-31T07:10:17.639Z,18.90
2018-08-31T07:12:45.748Z,17.03
2018-08-31T07:15:13.844Z,18.27
2018-08-31T07:17:42.024Z,17.33
2018-08-31T07:20:10.168Z,16.93
2018-08-31T07:22:38.302Z,17.37
2018-08-31T07:25:06.483Z,16.93
2018-08-31T07:27:34.640Z,16.80
2018-08-31T07:30:02.814Z,16.67
2018-08-31T07:32:31.043Z,20.63
2018-08-31T07:34:59.372Z,15.70
2018-08-31T07:37:27.459Z,17.10
2018-08-31T07:39:55.548Z,16.70
2018-08-31T07:42:23.888Z,18.07
2018-08-31T07:44:51.990Z,15.00
2018-08-31T07:47:20.117Z,17.33
2018-08-31T07:49:48.251Z,17.73
2018-08-31T07:52:16.415Z,15.47
2018-08-31T07:54:44.577Z,16.67
2018-08-31T07:57:12.744Z,16.53
2018-08-31T07:59:40.877Z,16.97
2018-08-31T08:02:09.088Z,18.73
2018-08-31T08:04:37.292Z,15.67
2018-08-31T08:07:05.567Z,22.47
2018-08-31T08:09:33.769Z,17.87
2018-08-31T08:12:02.021Z,15.80
2018-08-31T08:14:30.142Z,17.57
2018-08-31T08:16:58.281Z,18.83
2018-08-31T08:19:26.510Z,17.43
2018-08-31T08:21:54.633Z,16.00
2018-08-31T08:24:22.818Z,15.23
2018-08-31T08:26:50.959Z,18.73
2018-08-31T08:29:19.068Z,15.83
2018-08-31T08:31:47.206Z,16.23
2018-08-31T08:34:15.593Z,16.20
2018-08-31T08:36:44.198Z,16.23
2018-08-31T08:39:12.327Z,13.77
2018-08-31T08:41:40.445Z,14.90
2018-08-31T08:44:09.454Z,14.33
2018-08-31T08:46:37.577Z,19.17
2018-08-31T08:49:05.844Z,17.93
2018-08-31T08:51:33.945Z,17.77
2018-08-31T08:54:02.101Z,15.90
2018-08-31T08:56:30.236Z,15.90
2018-08-31T08:58:58.444Z,16.67
2018-08-31T09:01:26.728Z,22.47
2018-08-31T09:03:55.302Z,14.87
2018-08-31T09:06:23.406Z,16.70
2018-08-31T09:08:51.637Z,16.63
2018-08-31T09:11:20.509Z,18.00
2018-08-31T09:13:48.722Z,18.00
2018-08-31T09:16:16.863Z,16.43
2018-08-31T09:18:44.976Z,18.40
2018-08-31T09:21:13.097Z,18.33
2018-08-31T09:23:41.342Z,17.10
2018-08-31T09:26:11.728Z,17.67
2018-08-31T09:28:39.876Z,14.97
2018-08-31T09:31:12.895Z,18.40
2018-08-31T09:33:41.140Z,16.87
2018-08-31T09:36:09.663Z,17.03
2018-08-31T09:38:37.762Z,17.30
2018-08-31T09:41:06.203Z,17.87
2018-08-31T09:43:34.381Z,15.40
2018-08-31T09:46:02.726Z,17.53
2018-08-31T09:48:30.881Z,18.53
2018-08-31T09:50:59.058Z,18.47
2018-08-31T09:53:27.252Z,18.37
2018-08-31T09:55:55.556Z,17.53
2018-08-31T09:58:23.802Z,15.60
2018-08-31T10:00:58.419Z,16.43
2018-08-31T10:03:26.633Z,18.87
2018-08-31T10:05:56.134Z,16.63
2018-08-31T10:08:26.965Z,17.77
2018-08-31T10:10:56.037Z,17.20
2018-08-31T10:13:24.795Z,17.60
2018-08-31T10:15:53.076Z,16.90
2018-08-31T10:18:21.285Z,17.87
2018-08-31T10:20:49.424Z,16.73
2018-08-31T10:23:17.654Z,18.40
2018-08-31T10:25:45.820Z,18.00
2018-08-31T10:28:14.024Z,18.53
2018-08-31T10:30:42.232Z,16.97
2018-08-31T10:33:10.374Z,17.20
2018-08-31T10:35:38.904Z,18.67
2018-08-31T10:38:07.034Z,20.17
2018-08-31T10:40:35.148Z,18.23
2018-08-31T10:43:03.286Z,18.43
2018-08-31T10:45:31.462Z,17.00
2018-08-31T10:47:59.623Z,16.17
2018-08-31T10:50:27.868Z,21.70
2018-08-31T10:52:56.076Z,18.83
2018-08-31T10:55:24.282Z,19.57
2018-08-31T10:57:52.392Z,19.70
2018-08-31T11:00:20.591Z,20.33
2018-08-31T11:02:48.831Z,18.57
2018-08-31T11:05:17.176Z,20.13
2018-08-31T11:07:45.406Z,18.37
2018-08-31T11:10:13.521Z,18.33
2018-08-31T11:12:41.734Z,19.20
2018-08-31T11:15:09.987Z,19.50
2018-08-31T11:17:38.142Z,19.33
2018-08-31T11:20:06.370Z,20.00
2018-08-31T11:22:34.589Z,19.10
2018-08-31T11:25:02.758Z,24.10
2018-08-31T11:27:30.893Z,19.53
2018-08-31T11:29:59.143Z,18.00
2018-08-31T11:32:27.399Z,20.90
2018-08-31T11:34:55.551Z,18.73
2018-08-31T11:37:23.708Z,20.03
2018-08-31T11:39:51.854Z,19.87
2018-08-31T11:42:20.065Z,19.87
2018-08-31T11:44:48.209Z,21.37
2018-08-31T11:47:16.371Z,21.37
2018-08-31T11:49:44.585Z,17.30
2018-08-31T11:52:12.763Z,20.30
2018-08-31T11:54:40.963Z,19.37
2018-08-31T11:57:09.143Z,20.90
2018-08-31T11:59:37.431Z,21.00
2018-08-31T12:02:05.652Z,23.07
2018-08-31T12:04:33.902Z,19.53
2018-08-31T12:07:02.059Z,20.47
2018-08-31T12:09:30.285Z,21.03
2018-08-31T12:11:58.460Z,23.10
2018-08-31T12:14:26.575Z,21.03
2018-08-31T12:16:54.697Z,18.90
2018-08-31T12:19:22.828Z,19.70
2018-08-31T12:21:50.942Z,20.70
2018-08-31T12:24:19.359Z,19.97
2018-08-31T12:26:47.545Z,19.83
2018-08-31T12:29:15.694Z,19.27
2018-08-31T12:31:43.813Z,18.73
2018-08-31T12:34:11.943Z,22.07
2018-08-31T12:36:40.094Z,20.60
2018-08-31T12:39:08.886Z,18.30
2018-08-31T12:41:37.005Z,17.03
2018-08-31T12:44:05.364Z,17.20
2018-08-31T12:46:33.484Z,22.50
2018-08-31T12:49:01.673Z,20.80
2018-08-31T12:51:29.844Z,18.37
2018-08-31T12:53:58.092Z,20.43
2018-08-31T12:56:26.329Z,18.43
2018-08-31T12:58:54.501Z,19.87
2018-08-31T13:01:22.699Z,19.20
2018-08-31T13:03:50.962Z,20.23
2018-08-31T13:06:19.219Z,19.23
2018-08-31T13:08:47.416Z,19.43
2018-08-31T13:11:15.593Z,21.17
2018-08-31T13:13:43.772Z,20.50
2018-08-31T13:16:11.968Z,20.47
2018-08-31T13:18:40.220Z,17.97
2018-08-31T13:21:08.421Z,15.93
2018-08-31T13:23:36.641Z,18.07
2018-08-31T13:26:04.829Z,18.53
2018-08-31T13:28:32.970Z,17.70
2018-08-31T13:31:01.177Z,18.90
2018-08-31T13:33:29.350Z,18.73
2018-08-31T13:35:57.546Z,20.37
2018-08-31T13:38:25.829Z,24.40
2018-08-31T13:40:53.893Z,18.57
2018-08-31T13:43:22.062Z,19.97
2018-08-31T13:45:50.261Z,23.23
2018-08-31T13:48:18.539Z,23.83
2018-08-31T13:50:46.714Z,22.83
2018-08-31T13:53:14.887Z,23.67
2018-08-31T13:55:43.070Z,22.13
2018-08-31T13:58:11.234Z,21.07
2018-08-31T14:00:39.453Z,19.93
2018-08-31T14:03:07.679Z,23.83
2018-08-31T14:05:35.856Z,23.77
2018-08-31T14:08:03.991Z,22.80
2018-08-31T14:10:32.175Z,21.10
2018-08-31T14:13:00.353Z,19.80
2018-08-31T14:15:28.519Z,18.00
2018-08-31T14:17:56.725Z,19.10
2018-08-31T14:20:24.872Z,23.23
2018-08-31T14:22:54.114Z,20.83
2018-08-31T14:25:22.349Z,21.87
2018-08-31T14:27:51.465Z,20.07
2018-08-31T14:30:19.633Z,19.47
2018-08-31T14:32:47.916Z,18.73
2018-08-31T14:35:16.087Z,22.17
2018-08-31T14:37:44.271Z,20.53
2018-08-31T14:40:12.519Z,19.90
2018-08-31T14:42:40.707Z,19.63
2018-08-31T14:45:09.232Z,22.87
2018-08-31T14:47:37.449Z,22.07
2018-08-31T14:50:06.113Z,18.97
2018-08-31T14:52:34.306Z,21.17
2018-08-31T14:55:02.526Z,22.50
2018-08-31T14:57:30.692Z,19.90
2018-08-31T14:59:58.846Z,20.17
2018-08-31T15:02:27.025Z,23.00
2018-08-31T15:04:55.197Z,20.03
2018-08-31T15:07:23.431Z,20.27
2018-08-31T15:09:51.667Z,20.37
2018-08-31T15:12:19.829Z,19.43
2018-08-31T15:14:48.084Z,18.93
2018-08-31T15:17:16.254Z,19.50
2018-08-31T15:19:44.416Z,18.93
2018-08-31T15:22:12.673Z,20.13
2018-08-31T15:24:42.298Z,16.20
2018-08-31T15:27:10.458Z,17.77
2018-08-31T15:29:38.647Z,18.67
2018-08-31T15:32:06.765Z,15.63
2018-08-31T15:34:35.328Z,14.43
2018-08-31T15:37:05.255Z,16.83
2018-08-31T15:39:33.424Z,14.50
2018-08-31T15:42:01.606Z,14.50
2018-08-31T15:44:29.888Z,14.30
2018-08-31T15:46:58.058Z,15.63
2018-08-31T15:49:26.269Z,15.97
2018-08-31T15:51:54.473Z,14.27
2018-08-31T15:54:22.658Z,13.83
2018-08-31T15:56:50.817Z,17.67
2018-08-31T15:59:18.948Z,15.50
2018-08-31T16:01:47.099Z,15.53
2018-08-31T16:04:15.313Z,16.43
2018-08-31T16:06:43.560Z,16.67
2018-08-31T16:09:11.780Z,15.37
2018-08-31T16:11:39.912Z,17.83
2018-08-31T16:14:08.082Z,16.57
2018-08-31T16:16:36.215Z,16.10
2018-08-31T16:19:04.496Z,14.43
2018-08-31T16:21:32.598Z,14.30
2018-08-31T16:24:00.829Z,14.40
2018-08-31T16:26:29.042Z,13.07
2018-08-31T16:28:57.254Z,15.93
2018-08-31T16:31:25.498Z,17.27
2018-08-31T16:33:53.686Z,15.70
2018-08-31T16:36:22.016Z,16.40
2018-08-31T16:38:50.195Z,14.90
2018-08-31T16:41:18.393Z,16.43
2018-08-31T16:43:46.558Z,15.70
2018-08-31T16:46:14.704Z,17.67
2018-08-31T16:48:42.869Z,16.10
2018-08-31T16:51:11.019Z,13.87
2018-08-31T16:53:39.263Z,14.07
2018-08-31T16:56:08.000Z,13.80
2018-08-31T16:58:36.203Z,15.87
2018-08-31T17:01:04.423Z,15.27
2018-08-31T17:03:32.596Z,16.33
2018-08-31T17:06:00.855Z,16.47
2018-08-31T17:08:29.295Z,17.80
2018-08-31T17:10:57.430Z,17.67
2018-08-31T17:13:25.615Z,15.43
2018-08-31T17:15:53.854Z,16.57
2018-08-31T17:18:22.065Z,14.37
2018-08-31T17:20:50.208Z,15.53
2018-08-31T17:23:18.424Z,13.23
2018-08-31T17:25:46.647Z,13.77
2018-08-31T17:28:20.262Z,13.60
2018-08-31T17:30:48.500Z,16.80
2018-08-31T17:33:22.203Z,14.47
2018-08-31T17:35:55.893Z,14.37
2018-08-31T17:38:24.275Z,13.93
2018-08-31T17:40:52.473Z,13.07
2018-08-31T17:43:20.699Z,14.23
2018-08-31T17:45:48.815Z,12.40
2018-08-31T17:48:17.154Z,13.20
2018-08-31T17:50:45.409Z,11.37
2018-08-31T17:53:13.690Z,14.30
2018-08-31T17:55:41.959Z,11.60
2018-08-31T17:58:10.183Z,12.73
2018-08-31T18:00:38.408Z,14.00
2018-08-31T18:03:06.534Z,12.83
2018-08-31T18:05:34.751Z,13.20
2018-08-31T18:08:02.938Z,13.23
2018-08-31T18:10:31.076Z,15.43
2018-08-31T18:12:59.299Z,12.97
2018-08-31T18:15:27.555Z,12.23
2018-08-31T18:17:55.807Z,14.43
2018-08-31T18:20:24.028Z,13.13
2018-08-31T18:22:52.221Z,14.60
2018-08-31T18:25:20.424Z,15.73
2018-08-31T18:27:48.603Z,14.33
2018-08-31T18:30:16.839Z,17.67
2018-08-31T18:32:46.270Z,17.30
2018-08-31T18:35:14.560Z,15.00
2018-08-31T18:37:42.819Z,13.23
2018-08-31T18:40:11.146Z,16.57
2018-08-31T18:42:39.337Z,15.17
2018-08-31T18:45:07.543Z,14.73
2018-08-31T18:47:35.823Z,15.73
2018-08-31T18:50:04.978Z,15.27
2018-08-31T18:52:33.337Z,15.80
2018-08-31T18:55:01.405Z,16.93
2018-08-31T18:57:29.685Z,15.63
2018-08-31T18:59:59.146Z,16.30
2018-08-31T19:02:27.325Z,15.33
2018-08-31T19:04:55.504Z,17.03
2018-08-31T19:07:23.680Z,17.67
2018-08-31T19:09:51.818Z,15.90
2018-08-31T19:12:20.000Z,15.20
2018-08-31T19:14:48.151Z,19.03
2018-08-31T19:17:16.342Z,15.67
2018-08-31T19:19:44.545Z,18.30
2018-08-31T19:22:12.850Z,16.20
2018-08-31T19:24:41.035Z,16.67
2018-08-31T19:27:10.489Z,14.77
2018-08-31T19:29:39.011Z,11.30
2018-08-31T19:32:07.184Z,12.37
2018-08-31T19:34:35.390Z,11.33
2018-08-31T19:37:03.680Z,10.37
2018-08-31T19:39:31.971Z,9.90
2018-08-31T19:42:00.111Z,10.57
2018-08-31T19:44:28.318Z,10.27
2018-08-31T19:46:56.566Z,8.93
2018-08-31T19:49:24.795Z,9.23
2018-08-31T19:51:52.997Z,9.90
2018-08-31T19:54:21.256Z,10.00
2018-08-31T19:56:49.437Z,9.43
2018-08-31T19:59:17.608Z,9.37
2018-08-31T20:01:46.981Z,9.73
2018-08-31T20:04:15.188Z,10.67
2018-08-31T20:06:43.435Z,6.63
2018-08-31T20:09:11.631Z,10.70
2018-08-31T20:11:40.125Z,12.37
2018-08-31T20:14:08.723Z,11.30
2018-08-31T20:16:37.432Z,10.87
2018-08-31T20:19:05.686Z,11.00
2018-08-31T20:21:33.858Z,13.37
2018-08-31T20:24:02.067Z,11.23
2018-08-31T20:26:30.328Z,13.23
2018-08-31T20:28:58.482Z,14.27
2018-08-31T20:31:27.010Z,17.30
2018-08-31T20:33:55.183Z,11.90
2018-08-31T20:36:23.448Z,16.13
2018-08-31T20:38:51.703Z,14.07
2018-08-31T20:41:20.094Z,16.30
2018-08-31T20:43:48.361Z,18.00
2018-08-31T20:46:16.500Z,15.93
2018-08-31T20:48:44.733Z,18.00
2018-08-31T20:51:12.836Z,16.10
2018-08-31T20:53:41.006Z,16.03
2018-08-31T20:56:09.176Z,14.47
2018-08-31T20:58:37.401Z,18.30
2018-08-31T21:01:05.549Z,16.30
2018-08-31T21:03:33.892Z,18.80
2018-08-31T21:06:02.137Z,16.23
2018-08-31T21:08:30.387Z,18.70
2018-08-31T21:10:58.505Z,20.50
2018-08-31T21:13:26.663Z,17.53
2018-08-31T21:15:54.858Z,21.97
2018-08-31T21:18:22.991Z,20.17
2018-08-31T21:20:51.172Z,18.70
2018-08-31T21:23:19.317Z,19.33
2018-08-31T21:25:47.469Z,15.87
2018-08-31T21:28:15.667Z,20.97
2018-08-31T21:30:43.964Z,20.80
2018-08-31T21:33:12.092Z,18.70
2018-08-31T21:35:40.354Z,18.40
2018-08-31T21:38:08.563Z,20.20
2018-08-31T21:40:36.802Z,18.70
2018-08-31T21:43:04.966Z,17.40
2018-08-31T21:45:33.151Z,21.33
2018-08-31T21:48:01.400Z,19.63
2018-08-31T21:50:29.770Z,18.67
2018-08-31T21:52:58.008Z,16.77
2018-08-31T21:55:26.297Z,15.03
2018-08-31T21:57:55.046Z,17.73
2018-08-31T22:00:23.216Z,17.93
2018-08-31T22:02:51.576Z,18.13
2018-08-31T22:05:19.862Z,16.43
2018-08-31T22:07:48.085Z,17.93
2018-08-31T22:10:16.362Z,17.07
2018-08-31T22:12:44.777Z,18.53
2018-08-31T22:15:25.886Z,16.67
2018-08-31T22:17:54.281Z,19.17
2018-08-31T22:20:22.660Z,17.07
2018-08-31T22:22:51.994Z,17.13
2018-08-31T22:25:20.278Z,15.57
2018-08-31T22:27:48.846Z,17.57
2018-08-31T22:30:17.056Z,15.07
2018-08-31T22:32:45.196Z,15.57
2018-08-31T22:35:13.440Z,13.47
2018-08-31T22:37:41.628Z,16.33
2018-08-31T22:40:09.914Z,18.80
2018-08-31T22:42:38.064Z,17.50
2018-08-31T22:45:10.494Z,14.97
2018-08-31T22:47:38.854Z,14.83
2018-08-31T22:50:07.150Z,17.27
2018-08-31T22:52:35.337Z,15.40
2018-08-31T22:55:03.541Z,15.67
2018-08-31T22:57:31.730Z,13.20
2018-08-31T22:59:59.866Z,15.90
2018-08-31T23:02:28.102Z,14.47
2018-08-31T23:04:56.305Z,16.17
2018-08-31T23:07:29.946Z,12.87
2018-08-31T23:09:58.105Z,12.50
2018-08-31T23:12:26.350Z,12.70
2018-08-31T23:14:54.552Z,13.20
2018-08-31T23:17:27.540Z,16.60
2018-08-31T23:19:56.516Z,13.37
2018-08-31T23:22:24.805Z,13.60
2018-08-31T23:24:53.007Z,16.20
2018-08-31T23:27:21.168Z,16.43
2018-08-31T23:29:49.656Z,15.47
2018-08-31T23:32:17.860Z,13.37
2018-08-31T23:34:46.064Z,14.87
2018-08-31T23:37:14.471Z,14.40
2018-08-31T23:39:42.664Z,14.40
2018-08-31T23:42:10.998Z,14.60
2018-08-31T23:44:41.162Z,13.60
2018-08-31T23:47:09.508Z,11.53
2018-08-31T23:49:38.279Z,13.23
2018-08-31T23:52:06.601Z,18.10
2018-08-31T23:54:34.770Z,16.80
2018-08-31T23:57:03.004Z,13.63
2018-08-31T23:59:31.185Z,11.97
